<?xml version="1.0" encoding="UTF-8" standalone="no" ?>
<gpx xmlns="http://www.topografix.com/GPX/1/1" xmlns:xsi="http://www.w3.org/2001/XMLSchema-instance" xsi:schemaLocation="http://www.topografix.com/GPX/1/1 http://www.topografix.com/GPX/1/1/gpx.xsd" version="1.1" creator="VisuGPX - https://www.visugpx.com">
  <metadata>
    <name>randonnée des chateaux</name>
    <desc><![CDATA[randonnée des chateaux le wasigenstein avec les enfants,AUDREY,VALENTIN,ANAÏS]]></desc>
  </metadata>
  <wpt lat="49.03184" lon="7.71025">
    <ele>226</ele>
  </wpt>
  <wpt lat="49.03182" lon="7.71057">
    <ele>229</ele>
    <name><![CDATA[WP 070311chateaux]]></name>
  </wpt>
  <wpt lat="49.03552" lon="7.7129">
    <ele>318</ele>
  </wpt>
  <trk>
    <name><![CDATA[randonnée des chateaux_1]]></name>
    <trkseg>
      <trkpt lat="49.03184" lon="7.71025">
        <ele>226</ele>
        <time>2011-03-07T14:59:54Z</time>
      </trkpt>
      <trkpt lat="49.03182" lon="7.71058">
        <ele>226</ele>
        <time>2011-03-07T14:59:55Z</time>
      </trkpt>
      <trkpt lat="49.03182" lon="7.71057">
        <ele>229</ele>
        <time>2011-03-07T14:59:57Z</time>
      </trkpt>
      <trkpt lat="49.0318" lon="7.71044">
        <ele>242</ele>
        <time>2011-03-07T15:05:54Z</time>
      </trkpt>
      <trkpt lat="49.03187" lon="7.71054">
        <ele>229</ele>
        <time>2011-03-07T15:06:54Z</time>
      </trkpt>
      <trkpt lat="49.03193" lon="7.7104">
        <ele>219</ele>
        <time>2011-03-07T15:09:06Z</time>
      </trkpt>
      <trkpt lat="49.032" lon="7.71029">
        <ele>226</ele>
        <time>2011-03-07T15:09:16Z</time>
      </trkpt>
      <trkpt lat="49.03205" lon="7.71017">
        <ele>226</ele>
        <time>2011-03-07T15:09:28Z</time>
      </trkpt>
      <trkpt lat="49.0321" lon="7.71005">
        <ele>226</ele>
        <time>2011-03-07T15:09:34Z</time>
      </trkpt>
      <trkpt lat="49.03217" lon="7.70996">
        <ele>218</ele>
        <time>2011-03-07T15:09:42Z</time>
      </trkpt>
      <trkpt lat="49.03223" lon="7.70985">
        <ele>218</ele>
        <time>2011-03-07T15:09:50Z</time>
      </trkpt>
      <trkpt lat="49.03226" lon="7.70971">
        <ele>218</ele>
        <time>2011-03-07T15:09:58Z</time>
      </trkpt>
      <trkpt lat="49.03231" lon="7.70958">
        <ele>218</ele>
        <time>2011-03-07T15:10:06Z</time>
      </trkpt>
      <trkpt lat="49.03239" lon="7.70947">
        <ele>228</ele>
        <time>2011-03-07T15:10:14Z</time>
      </trkpt>
      <trkpt lat="49.03244" lon="7.70935">
        <ele>228</ele>
        <time>2011-03-07T15:10:22Z</time>
      </trkpt>
      <trkpt lat="49.03247" lon="7.70921">
        <ele>228</ele>
        <time>2011-03-07T15:10:28Z</time>
      </trkpt>
      <trkpt lat="49.03253" lon="7.70909">
        <ele>228</ele>
        <time>2011-03-07T15:10:34Z</time>
      </trkpt>
      <trkpt lat="49.03256" lon="7.70896">
        <ele>228</ele>
        <time>2011-03-07T15:10:41Z</time>
      </trkpt>
      <trkpt lat="49.03259" lon="7.70882">
        <ele>228</ele>
        <time>2011-03-07T15:10:48Z</time>
      </trkpt>
      <trkpt lat="49.03265" lon="7.70869">
        <ele>228</ele>
        <time>2011-03-07T15:10:56Z</time>
      </trkpt>
      <trkpt lat="49.03269" lon="7.70855">
        <ele>222</ele>
        <time>2011-03-07T15:11:03Z</time>
      </trkpt>
      <trkpt lat="49.03278" lon="7.70851">
        <ele>222</ele>
        <time>2011-03-07T15:11:11Z</time>
      </trkpt>
      <trkpt lat="49.03282" lon="7.70863">
        <ele>222</ele>
        <time>2011-03-07T15:11:18Z</time>
      </trkpt>
      <trkpt lat="49.03286" lon="7.70876">
        <ele>222</ele>
        <time>2011-03-07T15:11:30Z</time>
      </trkpt>
      <trkpt lat="49.03291" lon="7.70888">
        <ele>228</ele>
        <time>2011-03-07T15:11:38Z</time>
      </trkpt>
      <trkpt lat="49.03296" lon="7.709">
        <ele>234</ele>
        <time>2011-03-07T15:11:46Z</time>
      </trkpt>
      <trkpt lat="49.03298" lon="7.70914">
        <ele>248</ele>
        <time>2011-03-07T15:11:58Z</time>
      </trkpt>
      <trkpt lat="49.03299" lon="7.7093">
        <ele>248</ele>
        <time>2011-03-07T15:12:09Z</time>
      </trkpt>
      <trkpt lat="49.03298" lon="7.70944">
        <ele>248</ele>
        <time>2011-03-07T15:12:34Z</time>
      </trkpt>
      <trkpt lat="49.03296" lon="7.70958">
        <ele>239</ele>
        <time>2011-03-07T15:12:46Z</time>
      </trkpt>
      <trkpt lat="49.0329" lon="7.70976">
        <ele>244</ele>
        <time>2011-03-07T15:13:07Z</time>
      </trkpt>
      <trkpt lat="49.0329" lon="7.70994">
        <ele>239</ele>
        <time>2011-03-07T15:13:18Z</time>
      </trkpt>
      <trkpt lat="49.03299" lon="7.70997">
        <ele>239</ele>
        <time>2011-03-07T15:13:24Z</time>
      </trkpt>
      <trkpt lat="49.03309" lon="7.70997">
        <ele>239</ele>
        <time>2011-03-07T15:13:31Z</time>
      </trkpt>
      <trkpt lat="49.03299" lon="7.71">
        <ele>239</ele>
        <time>2011-03-07T15:13:41Z</time>
      </trkpt>
      <trkpt lat="49.03302" lon="7.70986">
        <ele>239</ele>
        <time>2011-03-07T15:14:21Z</time>
      </trkpt>
      <trkpt lat="49.03294" lon="7.70994">
        <ele>253</ele>
        <time>2011-03-07T15:14:57Z</time>
      </trkpt>
      <trkpt lat="49.03283" lon="7.70994">
        <ele>261</ele>
        <time>2011-03-07T15:15:04Z</time>
      </trkpt>
      <trkpt lat="49.03273" lon="7.70997">
        <ele>261</ele>
        <time>2011-03-07T15:15:09Z</time>
      </trkpt>
      <trkpt lat="49.03264" lon="7.71002">
        <ele>261</ele>
        <time>2011-03-07T15:15:15Z</time>
      </trkpt>
      <trkpt lat="49.03254" lon="7.70999">
        <ele>261</ele>
        <time>2011-03-07T15:15:26Z</time>
      </trkpt>
      <trkpt lat="49.03263" lon="7.71004">
        <ele>254</ele>
        <time>2011-03-07T15:15:58Z</time>
      </trkpt>
      <trkpt lat="49.03273" lon="7.71007">
        <ele>246</ele>
        <time>2011-03-07T15:16:05Z</time>
      </trkpt>
      <trkpt lat="49.03266" lon="7.71018">
        <ele>246</ele>
        <time>2011-03-07T15:16:43Z</time>
      </trkpt>
      <trkpt lat="49.03272" lon="7.71005">
        <ele>246</ele>
        <time>2011-03-07T15:17:05Z</time>
      </trkpt>
      <trkpt lat="49.03275" lon="7.70991">
        <ele>257</ele>
        <time>2011-03-07T15:17:16Z</time>
      </trkpt>
      <trkpt lat="49.03284" lon="7.71002">
        <ele>257</ele>
        <time>2011-03-07T15:17:25Z</time>
      </trkpt>
      <trkpt lat="49.03283" lon="7.71018">
        <ele>257</ele>
        <time>2011-03-07T15:17:31Z</time>
      </trkpt>
      <trkpt lat="49.03289" lon="7.71029">
        <ele>257</ele>
        <time>2011-03-07T15:17:39Z</time>
      </trkpt>
      <trkpt lat="49.03286" lon="7.71042">
        <ele>257</ele>
        <time>2011-03-07T15:17:48Z</time>
      </trkpt>
      <trkpt lat="49.03289" lon="7.71056">
        <ele>250</ele>
        <time>2011-03-07T15:17:58Z</time>
      </trkpt>
      <trkpt lat="49.03284" lon="7.71069">
        <ele>250</ele>
        <time>2011-03-07T15:18:07Z</time>
      </trkpt>
      <trkpt lat="49.03281" lon="7.71084">
        <ele>258</ele>
        <time>2011-03-07T15:18:13Z</time>
      </trkpt>
      <trkpt lat="49.03272" lon="7.71099">
        <ele>258</ele>
        <time>2011-03-07T15:18:23Z</time>
      </trkpt>
      <trkpt lat="49.03269" lon="7.71112">
        <ele>258</ele>
        <time>2011-03-07T15:18:34Z</time>
      </trkpt>
      <trkpt lat="49.03268" lon="7.71133">
        <ele>258</ele>
        <time>2011-03-07T15:18:51Z</time>
      </trkpt>
      <trkpt lat="49.03278" lon="7.71135">
        <ele>247</ele>
        <time>2011-03-07T15:19:03Z</time>
      </trkpt>
      <trkpt lat="49.03288" lon="7.71133">
        <ele>247</ele>
        <time>2011-03-07T15:19:11Z</time>
      </trkpt>
      <trkpt lat="49.03298" lon="7.71135">
        <ele>252</ele>
        <time>2011-03-07T15:19:21Z</time>
      </trkpt>
      <trkpt lat="49.03307" lon="7.71143">
        <ele>259</ele>
        <time>2011-03-07T15:19:32Z</time>
      </trkpt>
      <trkpt lat="49.03316" lon="7.71144">
        <ele>259</ele>
        <time>2011-03-07T15:19:39Z</time>
      </trkpt>
      <trkpt lat="49.03307" lon="7.71142">
        <ele>274</ele>
        <time>2011-03-07T15:19:57Z</time>
      </trkpt>
      <trkpt lat="49.03317" lon="7.7114">
        <ele>261</ele>
        <time>2011-03-07T15:20:40Z</time>
      </trkpt>
      <trkpt lat="49.03326" lon="7.71134">
        <ele>261</ele>
        <time>2011-03-07T15:20:45Z</time>
      </trkpt>
      <trkpt lat="49.03335" lon="7.71126">
        <ele>255</ele>
        <time>2011-03-07T15:20:53Z</time>
      </trkpt>
      <trkpt lat="49.03342" lon="7.71114">
        <ele>255</ele>
        <time>2011-03-07T15:21:02Z</time>
      </trkpt>
      <trkpt lat="49.0335" lon="7.71104">
        <ele>260</ele>
        <time>2011-03-07T15:21:10Z</time>
      </trkpt>
      <trkpt lat="49.03357" lon="7.71096">
        <ele>260</ele>
        <time>2011-03-07T15:21:17Z</time>
      </trkpt>
      <trkpt lat="49.03368" lon="7.71094">
        <ele>255</ele>
        <time>2011-03-07T15:21:25Z</time>
      </trkpt>
      <trkpt lat="49.03372" lon="7.71107">
        <ele>260</ele>
        <time>2011-03-07T15:21:36Z</time>
      </trkpt>
      <trkpt lat="49.03374" lon="7.7112">
        <ele>272</ele>
        <time>2011-03-07T15:21:45Z</time>
      </trkpt>
      <trkpt lat="49.03375" lon="7.71135">
        <ele>272</ele>
        <time>2011-03-07T15:22:13Z</time>
      </trkpt>
      <trkpt lat="49.03375" lon="7.71149">
        <ele>279</ele>
        <time>2011-03-07T15:22:22Z</time>
      </trkpt>
      <trkpt lat="49.03381" lon="7.71161">
        <ele>285</ele>
        <time>2011-03-07T15:22:30Z</time>
      </trkpt>
      <trkpt lat="49.03389" lon="7.7117">
        <ele>285</ele>
        <time>2011-03-07T15:22:36Z</time>
      </trkpt>
      <trkpt lat="49.0339" lon="7.71185">
        <ele>278</ele>
        <time>2011-03-07T15:22:43Z</time>
      </trkpt>
      <trkpt lat="49.03397" lon="7.71195">
        <ele>265</ele>
        <time>2011-03-07T15:23:03Z</time>
      </trkpt>
      <trkpt lat="49.03401" lon="7.71209">
        <ele>280</ele>
        <time>2011-03-07T15:23:19Z</time>
      </trkpt>
      <trkpt lat="49.03403" lon="7.71223">
        <ele>280</ele>
        <time>2011-03-07T15:23:27Z</time>
      </trkpt>
      <trkpt lat="49.0341" lon="7.71236">
        <ele>287</ele>
        <time>2011-03-07T15:23:36Z</time>
      </trkpt>
      <trkpt lat="49.03413" lon="7.7125">
        <ele>293</ele>
        <time>2011-03-07T15:23:46Z</time>
      </trkpt>
      <trkpt lat="49.03416" lon="7.71264">
        <ele>293</ele>
        <time>2011-03-07T15:24:00Z</time>
      </trkpt>
      <trkpt lat="49.03425" lon="7.71265">
        <ele>293</ele>
        <time>2011-03-07T15:24:04Z</time>
      </trkpt>
      <trkpt lat="49.03433" lon="7.71276">
        <ele>293</ele>
        <time>2011-03-07T15:24:18Z</time>
      </trkpt>
      <trkpt lat="49.0344" lon="7.71287">
        <ele>293</ele>
        <time>2011-03-07T15:24:26Z</time>
      </trkpt>
      <trkpt lat="49.03452" lon="7.71289">
        <ele>293</ele>
        <time>2011-03-07T15:24:27Z</time>
      </trkpt>
      <trkpt lat="49.03461" lon="7.71298">
        <ele>293</ele>
        <time>2011-03-07T15:24:56Z</time>
      </trkpt>
      <trkpt lat="49.03472" lon="7.71299">
        <ele>300</ele>
        <time>2011-03-07T15:25:09Z</time>
      </trkpt>
      <trkpt lat="49.03481" lon="7.7129">
        <ele>300</ele>
        <time>2011-03-07T15:25:16Z</time>
      </trkpt>
      <trkpt lat="49.0349" lon="7.71295">
        <ele>306</ele>
        <time>2011-03-07T15:26:07Z</time>
      </trkpt>
      <trkpt lat="49.035" lon="7.71299">
        <ele>287</ele>
        <time>2011-03-07T15:26:19Z</time>
      </trkpt>
      <trkpt lat="49.03507" lon="7.7129">
        <ele>280</ele>
        <time>2011-03-07T15:26:31Z</time>
      </trkpt>
      <trkpt lat="49.03497" lon="7.71289">
        <ele>297</ele>
        <time>2011-03-07T15:26:53Z</time>
      </trkpt>
      <trkpt lat="49.03486" lon="7.71297">
        <ele>302</ele>
        <time>2011-03-07T15:27:08Z</time>
      </trkpt>
      <trkpt lat="49.03495" lon="7.71293">
        <ele>302</ele>
        <time>2011-03-07T15:27:37Z</time>
      </trkpt>
      <trkpt lat="49.03503" lon="7.71285">
        <ele>295</ele>
        <time>2011-03-07T15:28:19Z</time>
      </trkpt>
      <trkpt lat="49.03493" lon="7.71284">
        <ele>304</ele>
        <time>2011-03-07T15:28:55Z</time>
      </trkpt>
      <trkpt lat="49.03484" lon="7.71277">
        <ele>317</ele>
        <time>2011-03-07T15:29:05Z</time>
      </trkpt>
      <trkpt lat="49.03494" lon="7.71285">
        <ele>317</ele>
        <time>2011-03-07T15:29:18Z</time>
      </trkpt>
      <trkpt lat="49.03504" lon="7.7129">
        <ele>302</ele>
        <time>2011-03-07T15:29:24Z</time>
      </trkpt>
      <trkpt lat="49.03513" lon="7.71293">
        <ele>302</ele>
        <time>2011-03-07T15:29:28Z</time>
      </trkpt>
      <trkpt lat="49.03524" lon="7.71291">
        <ele>291</ele>
        <time>2011-03-07T15:29:33Z</time>
      </trkpt>
      <trkpt lat="49.03533" lon="7.71297">
        <ele>291</ele>
        <time>2011-03-07T15:29:51Z</time>
      </trkpt>
      <trkpt lat="49.03542" lon="7.7129">
        <ele>318</ele>
        <time>2011-03-07T15:30:07Z</time>
      </trkpt>
      <trkpt lat="49.03552" lon="7.7129">
        <ele>318</ele>
        <time>2011-03-07T15:30:19Z</time>
      </trkpt>
    </trkseg>
  </trk>
</gpx>